sim
Sign-in with your pilot id or email,
or register
Callsign
Passwort

Schedule Details

Flight Number: OEO4091
Departure: Palma de Mallorca Airport (LEPA) at 07:00
Arrival: Munich Airport (EDDM) at 09:10

Weather Information
Getting current METAR information for LEPA 221730Z 23007KT 9999 FEW018 26/22 Q1013 NOSIG
Getting current METAR information for EDDM 221720Z 12002KT 9999 FEW040CB 19/15 Q1010 NOSIG

Schedule Frequency

Route Map